createdAt,value
2023-12-09T00:00:48.279Z,101326.17
2023-12-09T00:03:15.961Z,101324.96
2023-12-09T00:05:43.605Z,101320.66
2023-12-09T00:08:11.294Z,101320.68
2023-12-09T00:10:38.937Z,101326.39
2023-12-09T00:13:06.472Z,101328.11
2023-12-09T00:15:34.022Z,101326.73
2023-12-09T00:18:02.358Z,101319.52
2023-12-09T00:20:30.892Z,101319.16
2023-12-09T00:22:58.388Z,101314.32
2023-12-09T00:25:26.965Z,101306.79
2023-12-09T00:27:54.586Z,101311.61
2023-12-09T00:30:22.519Z,101305.77
2023-12-09T00:32:51.128Z,101304.43
2023-12-09T00:35:19.582Z,101307.89
2023-12-09T00:37:47.186Z,101306.84
2023-12-09T00:40:14.755Z,101305.96
2023-12-09T00:42:42.713Z,101307.30
2023-12-09T00:45:10.440Z,101309.69
2023-12-09T00:47:38.512Z,101308.13
2023-12-09T00:50:07.082Z,101311.36
2023-12-09T00:52:34.794Z,101311.50
2023-12-09T00:55:02.381Z,101309.59
2023-12-09T00:57:30.591Z,101311.96
2023-12-09T00:59:58.173Z,101310.73
2023-12-09T01:02:26.327Z,101313.13
2023-12-09T01:04:54.047Z,101308.84
2023-12-09T01:07:22.281Z,101308.36
2023-12-09T01:09:49.838Z,101313.19
2023-12-09T01:12:17.387Z,101310.95
2023-12-09T01:14:45.165Z,101309.74
2023-12-09T01:17:12.834Z,101311.27
2023-12-09T01:19:40.880Z,101307.65
2023-12-09T01:22:08.536Z,101311.92
2023-12-09T01:24:36.237Z,101308.64
2023-12-09T01:27:04.273Z,101312.05
2023-12-09T01:29:31.811Z,101313.62
2023-12-09T01:31:59.440Z,101317.80
2023-12-09T01:34:27.173Z,101310.97
2023-12-09T01:36:55.569Z,101312.02
2023-12-09T01:39:23.658Z,101312.52
2023-12-09T01:41:51.185Z,101315.09
2023-12-09T01:44:19.076Z,101316.45
2023-12-09T01:46:46.697Z,101314.40
2023-12-09T01:49:15.407Z,101315.98
2023-12-09T01:51:46.658Z,101316.01
2023-12-09T01:54:14.139Z,101312.93
2023-12-09T01:56:41.603Z,101313.63
2023-12-09T01:59:10.397Z,101311.89
2023-12-09T02:01:38.366Z,101313.23
2023-12-09T02:04:06.139Z,101315.81
2023-12-09T02:06:33.702Z,101314.95
2023-12-09T02:09:01.255Z,101316.32
2023-12-09T02:12:16.494Z,101320.95
2023-12-09T02:14:51.287Z,101324.35
2023-12-09T02:17:25.349Z,101325.20
2023-12-09T02:19:52.986Z,101325.20
2023-12-09T02:23:54.945Z,101327.09
2023-12-09T02:26:24.282Z,101323.15
2023-12-09T02:29:01.586Z,101323.01
2023-12-09T02:31:31.997Z,101326.24
2023-12-09T02:34:01.900Z,101321.44
2023-12-09T02:36:29.055Z,101316.10
2023-12-09T02:38:56.690Z,101316.10
2023-12-09T02:41:23.453Z,101318.86
2023-12-09T02:43:50.773Z,101321.27
2023-12-09T02:46:18.149Z,101320.91
2023-12-09T02:48:45.541Z,101318.17
2023-12-09T02:51:12.823Z,101316.46
2023-12-09T02:53:39.485Z,101309.39
2023-12-09T02:56:06.568Z,101305.95
2023-12-09T02:58:33.307Z,101303.75
2023-12-09T03:01:00.591Z,101304.13
2023-12-09T03:03:27.835Z,101306.20
2023-12-09T03:05:54.746Z,101306.40
2023-12-09T03:08:21.652Z,101305.40
2023-12-09T03:10:48.641Z,101303.05
2023-12-09T03:13:15.673Z,101299.80
2023-12-09T03:15:43.419Z,101298.78
2023-12-09T03:18:10.412Z,101298.08
2023-12-09T03:20:37.626Z,101298.39
2023-12-09T03:23:04.589Z,101297.87
2023-12-09T03:25:33.071Z,101297.17
2023-12-09T03:28:01.874Z,101293.88
2023-12-09T03:30:29.365Z,101286.16
2023-12-09T03:32:56.843Z,101284.48
2023-12-09T03:35:23.849Z,101288.98
2023-12-09T03:37:50.647Z,101284.71
2023-12-09T03:40:17.613Z,101285.40
2023-12-09T03:42:44.602Z,101277.34
2023-12-09T03:45:11.804Z,101273.59
2023-12-09T03:47:38.866Z,101274.48
2023-12-09T03:50:06.647Z,101273.09
2023-12-09T03:52:33.573Z,101266.19
2023-12-09T03:55:00.919Z,101266.36
2023-12-09T03:57:31.756Z,101270.53
2023-12-09T03:59:58.921Z,101272.45
2023-12-09T04:02:26.176Z,101270.92
2023-12-09T04:04:53.039Z,101270.42
2023-12-09T04:07:20.036Z,101274.39
2023-12-09T04:09:47.164Z,101284.70
2023-12-09T04:12:14.378Z,101288.46
2023-12-09T04:14:41.390Z,101292.76
2023-12-09T04:17:08.119Z,101297.72
2023-12-09T04:19:35.243Z,101299.60
2023-12-09T04:22:02.465Z,101302.88
2023-12-09T04:24:30.506Z,101307.72
2023-12-09T04:26:57.304Z,101314.75
2023-12-09T04:29:24.188Z,101322.83
2023-12-09T04:31:51.188Z,101329.52
2023-12-09T04:34:17.927Z,101334.46
2023-12-09T04:36:44.768Z,101333.23
2023-12-09T04:39:11.902Z,101327.36
2023-12-09T04:41:38.811Z,101323.55
2023-12-09T04:44:05.842Z,101320.80
2023-12-09T04:46:32.931Z,101322.86
2023-12-09T04:49:00.460Z,101323.89
2023-12-09T04:51:27.806Z,101323.89
2023-12-09T04:53:54.602Z,101325.27
2023-12-09T04:56:21.197Z,101325.08
2023-12-09T04:58:48.513Z,101330.59
2023-12-09T05:01:15.791Z,101333.68
2023-12-09T05:06:29.417Z,101337.25
2023-12-09T05:08:58.102Z,101336.07
2023-12-09T05:11:26.283Z,101338.30
2023-12-09T05:13:53.902Z,101343.48
2023-12-09T05:16:21.422Z,101346.73
2023-12-09T05:18:56.802Z,101352.21
2023-12-09T05:21:35.057Z,101356.68
2023-12-09T05:24:05.855Z,101356.52
2023-12-09T05:26:34.711Z,101353.80
2023-12-09T05:29:02.566Z,101358.30
2023-12-09T05:31:30.106Z,101366.73
2023-12-09T05:33:57.691Z,101368.80
2023-12-09T05:36:25.575Z,101372.42
2023-12-09T05:38:53.065Z,101372.61
2023-12-09T05:41:20.649Z,101375.35
2023-12-09T05:43:49.222Z,101378.24
2023-12-09T05:46:23.159Z,101378.73
2023-12-09T05:48:50.888Z,101380.42
2023-12-09T05:51:19.452Z,101385.73
2023-12-09T05:53:47.768Z,101386.04
2023-12-09T05:56:15.410Z,101383.98
2023-12-09T05:58:42.956Z,101381.60
2023-12-09T06:01:11.480Z,101374.21
2023-12-09T06:03:39.747Z,101370.26
2023-12-09T06:06:07.877Z,101367.87
2023-12-09T06:08:36.907Z,101370.94
2023-12-09T06:11:04.881Z,101371.59
2023-12-09T06:13:32.602Z,101369.34
2023-12-09T06:16:00.144Z,101373.45
2023-12-09T06:18:28.575Z,101378.59
2023-12-09T06:20:56.234Z,101382.02
2023-12-09T06:23:24.192Z,101384.91
2023-12-09T06:25:52.014Z,101381.27
2023-12-09T06:28:19.892Z,101379.19
2023-12-09T06:30:47.818Z,101379.19
2023-12-09T06:33:15.387Z,101381.25
2023-12-09T06:35:43.359Z,101380.89
2023-12-09T06:38:10.829Z,101373.50
2023-12-09T06:40:38.760Z,101371.61
2023-12-09T06:43:06.245Z,101372.13
2023-12-09T06:45:33.838Z,101371.25
2023-12-09T06:48:01.578Z,101367.99
2023-12-09T06:50:29.242Z,101370.41
2023-12-09T06:52:57.057Z,101366.96
2023-12-09T06:55:24.706Z,101364.20
2023-12-09T06:57:52.615Z,101360.23
2023-12-09T07:00:20.882Z,101362.67
2023-12-09T07:02:58.903Z,101363.92
2023-12-09T07:05:31.181Z,101371.20
2023-12-09T07:07:58.780Z,101377.95
2023-12-09T07:10:26.470Z,101377.27
2023-12-09T07:12:54.117Z,101375.39
2023-12-09T07:15:21.984Z,101372.96
2023-12-09T07:17:49.701Z,101375.52
2023-12-09T07:20:17.318Z,101371.84
2023-12-09T07:22:45.602Z,101372.04
2023-12-09T07:25:13.100Z,101367.73
2023-12-09T07:27:41.833Z,101366.17
2023-12-09T07:30:09.624Z,101364.79
2023-12-09T07:32:37.218Z,101372.17
2023-12-09T07:35:05.872Z,101373.23
2023-12-09T07:37:33.855Z,101373.60
2023-12-09T07:52:42.973Z,101354.88
2023-12-09T07:55:10.557Z,101353.98
2023-12-09T07:57:38.105Z,101348.98
2023-12-09T08:00:07.083Z,101345.69
2023-12-09T08:02:35.637Z,101343.77
2023-12-09T08:05:05.600Z,101334.64
2023-12-09T08:07:33.455Z,101325.00
2023-12-09T08:10:02.279Z,101322.23
2023-12-09T08:12:30.092Z,101320.54
2023-12-09T08:14:58.397Z,101319.91
2023-12-09T08:17:26.165Z,101314.77
2023-12-09T08:19:54.291Z,101311.70
2023-12-09T08:22:21.731Z,101308.26
2023-12-09T08:24:49.294Z,101300.87
2023-12-09T08:27:16.786Z,101299.99
2023-12-09T08:29:44.365Z,101293.78
2023-12-09T08:32:12.031Z,101292.70
2023-12-09T08:34:39.654Z,101288.56
2023-12-09T08:37:07.985Z,101287.54
2023-12-09T08:39:37.566Z,101289.08
2023-12-09T08:42:05.252Z,101292.48
2023-12-09T08:44:32.748Z,101287.62
2023-12-09T08:47:01.639Z,101289.20
2023-12-09T08:49:29.816Z,101286.62
2023-12-09T08:51:59.853Z,101280.06
2023-12-09T08:54:27.419Z,101274.36
2023-12-09T08:56:55.017Z,101276.25
2023-12-09T08:59:22.772Z,101268.19
2023-12-09T09:01:50.309Z,101269.08
2023-12-09T09:04:19.720Z,101266.66
2023-12-09T09:06:48.137Z,101261.52
2023-12-09T09:09:17.084Z,101261.34
2023-12-09T09:11:46.644Z,101261.17
2023-12-09T09:14:14.369Z,101261.17
2023-12-09T09:16:41.878Z,101261.34
2023-12-09T09:19:09.488Z,101259.27
2023-12-09T09:21:37.241Z,101261.68
2023-12-09T09:24:05.467Z,101259.39
2023-12-09T09:26:34.519Z,101262.47
2023-12-09T09:29:02.150Z,101257.30
2023-12-09T09:31:30.238Z,101257.11
2023-12-09T09:33:57.943Z,101252.76
2023-12-09T09:36:25.653Z,101249.44
2023-12-09T09:38:53.718Z,101253.67
2023-12-09T09:41:24.193Z,101254.69
2023-12-09T09:44:00.385Z,101254.52
2023-12-09T09:46:27.891Z,101256.92
2023-12-09T09:48:55.773Z,101256.75
2023-12-09T09:51:28.088Z,101249.98
2023-12-09T09:54:25.314Z,101240.98
2023-12-09T09:56:52.964Z,101239.59
2023-12-09T09:59:20.580Z,101235.61
2023-12-09T10:01:48.284Z,101238.70
2023-12-09T10:04:15.901Z,101242.35
2023-12-09T10:06:43.739Z,101237.74
2023-12-09T10:09:11.405Z,101234.01
2023-12-09T10:11:39.627Z,101233.88
2023-12-09T10:14:07.210Z,101235.34
2023-12-09T10:16:34.754Z,101234.01
2023-12-09T10:19:02.399Z,101231.64
2023-12-09T10:21:30.079Z,101233.04
2023-12-09T10:23:57.810Z,101228.06
2023-12-09T10:26:25.355Z,101224.11
2023-12-09T10:28:58.079Z,101225.31
2023-12-09T10:31:28.678Z,101230.83
2023-12-09T10:33:56.863Z,101226.16
2023-12-09T10:36:26.073Z,101222.53
2023-12-09T10:38:56.522Z,101223.59
2023-12-09T10:41:26.476Z,101224.48
2023-12-09T10:44:06.745Z,101220.52
2023-12-09T10:46:37.575Z,101216.56
2023-12-09T10:49:14.369Z,101211.69
2023-12-09T10:51:42.369Z,101215.28
2023-12-09T10:54:10.758Z,101214.23
2023-12-09T11:09:33.623Z,101224.10
2023-12-09T11:12:01.263Z,101226.07
2023-12-09T11:14:31.179Z,101226.39
2023-12-09T11:16:58.006Z,101224.84
2023-12-09T11:19:25.568Z,101227.54
2023-12-09T11:21:53.726Z,101229.27
2023-12-09T11:24:20.810Z,101224.75
2023-12-09T11:26:48.636Z,101224.89
2023-12-09T11:29:17.735Z,101222.99
2023-12-09T11:31:47.046Z,101225.44
2023-12-09T11:34:15.362Z,101230.43
2023-12-09T11:36:43.397Z,101227.14
2023-12-09T11:39:12.168Z,101226.98
2023-12-09T11:41:39.831Z,101225.23
2023-12-09T11:44:07.772Z,101221.77
2023-12-09T11:46:35.488Z,101225.56
2023-12-09T11:49:06.641Z,101225.60
2023-12-09T11:51:35.955Z,101226.48
2023-12-09T11:54:07.717Z,101221.34
2023-12-09T11:56:34.901Z,101219.96
2023-12-09T11:59:02.178Z,101220.67
2023-12-09T12:01:30.003Z,101224.52
2023-12-09T12:03:57.319Z,101224.08
2023-12-09T12:06:24.229Z,101231.52
2023-12-09T12:08:53.562Z,101232.56
2023-12-09T12:11:21.964Z,101235.15
2023-12-09T12:13:49.100Z,101235.01
2023-12-09T12:16:16.368Z,101232.81
2023-12-09T12:18:45.127Z,101233.65
2023-12-09T12:21:12.217Z,101232.25
2023-12-09T12:23:40.217Z,101235.35
2023-12-09T12:26:08.814Z,101235.19
2023-12-09T12:28:38.825Z,101237.80
2023-12-09T12:31:06.790Z,101235.09
2023-12-09T12:33:33.840Z,101235.78
2023-12-09T12:36:01.512Z,101236.79
2023-12-09T12:38:31.256Z,101234.67
2023-12-09T12:40:58.473Z,101234.64
2023-12-09T12:43:29.074Z,101233.78
2023-12-09T12:45:58.370Z,101228.77
2023-12-09T12:48:25.797Z,101229.45
2023-12-09T12:50:53.290Z,101227.88
2023-12-09T12:53:23.336Z,101228.73
2023-12-09T12:55:50.420Z,101226.69
2023-12-09T12:58:17.915Z,101225.52
2023-12-09T13:00:49.702Z,101226.55
2023-12-09T13:03:16.574Z,101235.36
2023-12-09T13:05:44.033Z,101236.62
2023-12-09T13:08:11.235Z,101234.27
2023-12-09T13:10:38.043Z,101229.85
2023-12-09T13:13:06.267Z,101231.58
2023-12-09T13:15:34.071Z,101229.99
2023-12-09T13:18:01.514Z,101231.92
2023-12-09T13:20:29.558Z,101228.49
2023-12-09T13:22:57.155Z,101227.66
2023-12-09T13:25:24.298Z,101229.05
2023-12-09T13:27:51.354Z,101236.27
2023-12-09T13:30:21.485Z,101239.06
2023-12-09T13:32:48.899Z,101238.57
2023-12-09T13:35:16.279Z,101237.71
2023-12-09T13:37:43.680Z,101235.95
2023-12-09T13:40:12.034Z,101227.70
2023-12-09T13:42:40.421Z,101223.21
2023-12-09T13:45:08.480Z,101224.27
2023-12-09T13:47:35.539Z,101219.66
2023-12-09T13:50:02.983Z,101217.96
2023-12-09T13:52:31.374Z,101221.94
2023-12-09T13:54:59.496Z,101214.21
2023-12-09T13:57:26.320Z,101211.46
2023-12-09T13:59:53.355Z,101209.59
2023-12-09T14:02:22.814Z,101220.79
2023-12-09T14:04:49.648Z,101221.00
2023-12-09T14:07:16.459Z,101217.24
2023-12-09T14:09:43.643Z,101218.66
2023-12-09T14:12:10.625Z,101217.98
2023-12-09T14:14:37.508Z,101224.88
2023-12-09T14:17:07.546Z,101221.61
2023-12-09T14:19:34.454Z,101219.41
2023-12-09T14:22:01.999Z,101225.79
2023-12-09T14:24:31.677Z,101230.10
2023-12-09T14:26:58.491Z,101232.16
2023-12-09T14:29:27.681Z,101229.76
2023-12-09T14:31:54.297Z,101227.67
2023-12-09T14:34:22.288Z,101227.33
2023-12-09T14:36:49.996Z,101230.96
2023-12-09T14:39:18.820Z,101227.83
2023-12-09T14:41:46.441Z,101232.27
2023-12-09T14:44:14.141Z,101237.60
2023-12-09T14:46:41.735Z,101239.17
2023-12-09T14:49:08.773Z,101237.14
2023-12-09T14:51:43.669Z,101239.23
2023-12-09T14:54:18.113Z,101237.00
2023-12-09T14:56:46.244Z,101236.85
2023-12-09T14:59:15.905Z,101238.59
2023-12-09T15:01:43.622Z,101237.71
2023-12-09T15:04:10.899Z,101234.09
2023-12-09T15:06:37.842Z,101234.06
2023-12-09T15:09:04.831Z,101226.83
2023-12-09T15:11:34.862Z,101227.65
2023-12-09T15:14:02.355Z,101226.42
2023-12-09T15:16:29.688Z,101226.25
2023-12-09T15:18:57.132Z,101222.13
2023-12-09T15:21:25.437Z,101219.89
2023-12-09T15:23:52.791Z,101216.96
2023-12-09T15:26:20.034Z,101214.21
2023-12-09T15:28:50.119Z,101208.55
2023-12-09T15:31:18.323Z,101210.13
2023-12-09T15:33:46.046Z,101204.63
2023-12-09T15:36:13.001Z,101205.98
2023-12-09T15:38:40.259Z,101210.61
2023-12-09T15:41:08.088Z,101207.85
2023-12-09T15:43:35.388Z,101205.42
2023-12-09T15:46:02.437Z,101210.73
2023-12-09T15:48:30.621Z,101215.37
2023-12-09T15:50:57.378Z,101216.77
2023-12-09T15:53:26.800Z,101215.23
2023-12-09T15:55:55.149Z,101209.94
2023-12-09T15:58:22.222Z,101213.24
2023-12-09T16:00:49.606Z,101215.30
2023-12-09T16:03:17.373Z,101208.93
2023-12-09T16:05:44.586Z,101209.45
2023-12-09T16:08:12.104Z,101211.84
2023-12-09T16:10:38.995Z,101214.23
2023-12-09T16:13:08.595Z,101210.30
2023-12-09T16:15:35.442Z,101208.23
2023-12-09T16:18:03.203Z,101210.46
2023-12-09T16:20:30.230Z,101209.77
2023-12-09T16:22:57.023Z,101213.39
2023-12-09T16:25:23.889Z,101214.77
2023-12-09T16:27:51.236Z,101212.54
2023-12-09T16:30:19.126Z,101210.12
2023-12-09T16:32:49.933Z,101220.42
2023-12-09T16:35:18.418Z,101226.93
2023-12-09T16:37:45.173Z,101223.16
2023-12-09T16:40:12.876Z,101221.10
2023-12-09T16:42:40.311Z,101219.39
2023-12-09T16:45:09.746Z,101219.45
2023-12-09T16:47:37.990Z,101216.73
2023-12-09T16:50:07.676Z,101218.11
2023-12-09T16:52:36.212Z,101215.88
2023-12-09T16:55:03.533Z,101215.75
2023-12-09T16:57:30.785Z,101211.98
2023-12-09T16:59:58.530Z,101209.06
2023-12-09T17:02:26.996Z,101205.26
2023-12-09T17:04:54.196Z,101200.05
2023-12-09T17:07:21.490Z,101203.66
2023-12-09T17:09:48.631Z,101201.94
2023-12-09T17:12:15.700Z,101201.42
2023-12-09T17:14:43.879Z,101197.11
2023-12-09T17:17:10.767Z,101194.19
2023-12-09T17:19:37.640Z,101199.69
2023-12-09T17:24:11.729Z,101198.33
2023-12-09T17:26:39.334Z,101199.38
2023-12-09T17:29:07.187Z,101200.56
2023-12-09T17:31:36.483Z,101203.33
2023-12-09T17:34:05.925Z,101203.02
2023-12-09T17:36:33.764Z,101205.63
2023-12-09T17:39:06.276Z,101207.52
2023-12-09T17:41:33.122Z,101208.17
2023-12-09T17:44:00.194Z,101203.84
2023-12-09T17:46:27.843Z,101199.20
2023-12-09T17:48:55.362Z,101196.27
2023-12-09T17:51:22.455Z,101191.48
2023-12-09T17:53:49.976Z,101190.09
2023-12-09T17:56:17.844Z,101182.38
2023-12-09T17:58:56.566Z,101184.45
2023-12-09T18:01:24.433Z,101186.22
2023-12-09T18:03:51.737Z,101195.53
2023-12-09T18:06:21.513Z,101197.23
2023-12-09T18:08:50.547Z,101194.02
2023-12-09T18:14:02.895Z,101197.81
2023-12-09T18:16:33.503Z,101196.05
2023-12-09T18:19:01.472Z,101200.35
2023-12-09T18:21:28.816Z,101199.83
2023-12-09T18:23:58.901Z,101202.41
2023-12-09T18:26:29.383Z,101202.78
2023-12-09T18:28:57.205Z,101201.59
2023-12-09T18:31:27.075Z,101204.84
2023-12-09T18:33:56.906Z,101203.09
2023-12-09T18:36:23.813Z,101208.58
2023-12-09T18:38:51.064Z,101209.64
2023-12-09T18:41:18.670Z,101209.34
2023-12-09T18:43:50.937Z,101213.34
2023-12-09T18:46:17.938Z,101209.80
2023-12-09T18:48:46.406Z,101208.44
2023-12-09T18:51:13.861Z,101204.14
2023-12-09T18:53:41.306Z,101204.48
2023-12-09T18:56:09.299Z,101202.92
2023-12-09T18:58:36.598Z,101201.22
2023-12-09T19:01:11.113Z,101197.40
2023-12-09T19:03:39.330Z,101199.83
2023-12-09T19:06:10.759Z,101203.97
2023-12-09T19:08:40.972Z,101200.21
2023-12-09T19:11:09.566Z,101197.13
2023-12-09T19:13:37.045Z,101196.59
2023-12-09T19:16:04.286Z,101191.97
2023-12-09T19:18:32.370Z,101184.27
2023-12-09T19:20:59.807Z,101182.38
2023-12-09T19:23:26.900Z,101176.00
2023-12-09T19:25:53.946Z,101172.38
2023-12-09T19:28:21.190Z,101176.02
2023-12-09T19:30:48.689Z,101175.36
2023-12-09T19:33:16.545Z,101176.56
2023-12-09T19:35:43.472Z,101183.40
2023-12-09T19:38:12.785Z,101180.31
2023-12-09T19:40:39.684Z,101182.71
2023-12-09T19:43:07.561Z,101183.92
2023-12-09T19:45:34.493Z,101179.99
2023-12-09T19:48:02.196Z,101182.23
2023-12-09T19:50:29.601Z,101182.92
2023-12-09T19:52:57.129Z,101178.27
2023-12-09T19:55:24.603Z,101176.21
2023-12-09T19:57:52.217Z,101178.27
2023-12-09T20:00:19.943Z,101177.89
2023-12-09T20:02:47.672Z,101179.74
2023-12-09T20:05:14.823Z,101175.45
2023-12-09T20:07:41.783Z,101176.65
2023-12-09T20:10:10.761Z,101169.08
2023-12-09T20:12:38.331Z,101166.52
2023-12-09T20:15:07.069Z,101175.30
2023-12-09T20:17:34.344Z,101173.27
2023-12-09T20:20:04.744Z,101174.98
2023-12-09T20:22:32.800Z,101174.28
2023-12-09T20:25:02.305Z,101171.23
2023-12-09T20:27:29.956Z,101167.64
2023-12-09T20:29:59.104Z,101165.58
2023-12-09T20:32:26.935Z,101167.81
2023-12-09T20:34:54.181Z,101166.96
2023-12-09T20:37:21.464Z,101163.67
2023-12-09T20:39:48.750Z,101158.50
2023-12-09T20:42:15.736Z,101155.05
2023-12-09T20:44:43.619Z,101151.40
2023-12-09T20:47:17.823Z,101152.58
2023-12-09T20:49:45.265Z,101148.63
2023-12-09T20:52:12.120Z,101149.51
2023-12-09T20:54:42.744Z,101145.39
2023-12-09T20:57:10.413Z,101143.99
2023-12-09T20:59:37.881Z,101142.28
2023-12-09T21:02:04.691Z,101140.40
2023-12-09T21:04:31.629Z,101137.86
2023-12-09T21:06:58.819Z,101137.34
2023-12-09T21:09:26.799Z,101139.90
2023-12-09T21:11:53.949Z,101141.45
2023-12-09T21:14:21.187Z,101142.00
2023-12-09T21:16:48.287Z,101139.27
2023-12-09T21:19:15.888Z,101140.80
2023-12-09T21:21:42.731Z,101138.91
2023-12-09T21:24:10.199Z,101134.45
2023-12-09T21:26:38.912Z,101138.39
2023-12-09T21:29:06.539Z,101133.91
2023-12-09T21:31:34.126Z,101128.05
2023-12-09T21:34:01.223Z,101124.26
2023-12-09T21:36:28.287Z,101120.96
2023-12-09T21:38:55.450Z,101115.80
2023-12-09T21:41:23.212Z,101113.40
2023-12-09T21:43:50.824Z,101108.79
2023-12-09T21:46:24.630Z,101107.25
2023-12-09T21:48:52.685Z,101102.45
2023-12-09T21:51:23.810Z,101096.45
2023-12-09T21:53:51.428Z,101094.55
2023-12-09T21:56:22.969Z,101092.70
2023-12-09T21:58:50.042Z,101083.09
2023-12-09T22:01:17.584Z,101084.11
2023-12-09T22:03:47.731Z,101075.15
2023-12-09T22:06:15.068Z,101070.31
2023-12-09T22:08:42.925Z,101074.10
2023-12-09T22:11:10.671Z,101073.08
2023-12-09T22:13:38.865Z,101075.48
2023-12-09T22:16:06.975Z,101076.48
2023-12-09T22:18:34.140Z,101079.05
2023-12-09T22:21:02.132Z,101077.80
2023-12-09T22:23:29.447Z,101084.67
2023-12-09T22:25:57.298Z,101089.48
2023-12-09T22:28:24.608Z,101092.41
2023-12-09T22:30:51.430Z,101093.96
2023-12-09T22:33:18.405Z,101093.33
2023-12-09T22:35:45.364Z,101092.99
2023-12-09T22:38:13.570Z,101091.77
2023-12-09T22:40:40.506Z,101092.96
2023-12-09T22:43:07.747Z,101093.30
2023-12-09T22:45:36.056Z,101092.45
2023-12-09T22:48:03.166Z,101092.44
2023-12-09T22:50:31.420Z,101089.68
2023-12-09T22:52:59.594Z,101096.05
2023-12-09T22:55:27.537Z,101094.67
2023-12-09T22:57:54.757Z,101095.38
2023-12-09T23:00:33.917Z,101097.79
2023-12-09T23:03:01.857Z,101096.44
2023-12-09T23:05:28.983Z,101100.91
2023-12-09T23:07:56.129Z,101097.29
2023-12-09T23:10:23.130Z,101092.80
2023-12-09T23:12:50.057Z,101090.05
2023-12-09T23:15:17.006Z,101092.98
2023-12-09T23:17:44.609Z,101094.35
2023-12-09T23:20:11.945Z,101089.50
2023-12-09T23:22:39.117Z,101091.58
2023-12-09T23:25:07.317Z,101088.50
2023-12-09T23:27:34.314Z,101092.44
2023-12-09T23:30:01.538Z,101088.52
2023-12-09T23:32:29.295Z,101088.36
2023-12-09T23:34:56.438Z,101090.62
2023-12-09T23:37:24.914Z,101090.30
2023-12-09T23:39:52.305Z,101092.35
2023-12-09T23:42:19.270Z,101081.02
2023-12-09T23:44:46.306Z,101082.73
2023-12-09T23:47:14.040Z,101082.20
2023-12-09T23:49:40.907Z,101083.37
2023-12-09T23:52:08.206Z,101079.89
2023-12-09T23:54:35.577Z,101086.92
2023-12-09T23:57:02.885Z,101088.45
2023-12-09T23:59:30.196Z,101092.05
